sensor_id;sensor_type;location;lat;lon;timestamp;temperature;humidity
8002;DHT22;4046;48.774;8.732;2024-03-02T00:01:44;20.60;69.70
8002;DHT22;4046;48.774;8.732;2024-03-02T00:11:45;20.60;69.70
8002;DHT22;4046;48.774;8.732;2024-03-02T00:14:18;20.60;69.70
8002;DHT22;4046;48.774;8.732;2024-03-02T00:17:18;20.60;69.70
8002;DHT22;4046;48.774;8.732;2024-03-02T00:19:47;20.60;69.70
8002;DHT22;4046;48.774;8.732;2024-03-02T00:32:18;20.70;69.70
8002;DHT22;4046;48.774;8.732;2024-03-02T00:34:48;20.70;69.80
8002;DHT22;4046;48.774;8.732;2024-03-02T00:38:18;20.60;69.60
8002;DHT22;4046;48.774;8.732;2024-03-02T00:40:45;20.60;69.70
8002;DHT22;4046;48.774;8.732;2024-03-02T00:46:35;20.60;69.70
8002;DHT22;4046;48.774;8.732;2024-03-02T00:49:40;20.70;69.80
8002;DHT22;4046;48.774;8.732;2024-03-02T00:52:44;20.60;69.70
8002;DHT22;4046;48.774;8.732;2024-03-02T00:55:36;20.60;70.40
8002;DHT22;4046;48.774;8.732;2024-03-02T00:58:03;20.60;69.70
8002;DHT22;4046;48.774;8.732;2024-03-02T01:00:29;20.60;69.70
8002;DHT22;4046;48.774;8.732;2024-03-02T01:03:16;20.90;70.00
8002;DHT22;4046;48.774;8.732;2024-03-02T01:09:42;20.60;69.60
8002;DHT22;4046;48.774;8.732;2024-03-02T01:16:18;20.60;69.70
8002;DHT22;4046;48.774;8.732;2024-03-02T01:22:25;20.60;69.70
8002;DHT22;4046;48.774;8.732;2024-03-02T01:25:15;20.60;69.70
8002;DHT22;4046;48.774;8.732;2024-03-02T01:27:53;20.60;69.70
8002;DHT22;4046;48.774;8.732;2024-03-02T01:30:53;20.60;69.70
8002;DHT22;4046;48.774;8.732;2024-03-02T01:34:43;20.60;69.70
8002;DHT22;4046;48.774;8.732;2024-03-02T01:37:51;20.60;69.70
8002;DHT22;4046;48.774;8.732;2024-03-02T01:40:27;20.60;69.70
8002;DHT22;4046;48.774;8.732;2024-03-02T01:42:54;20.60;69.70
8002;DHT22;4046;48.774;8.732;2024-03-02T01:48:44;20.60;69.70
8002;DHT22;4046;48.774;8.732;2024-03-02T01:54:32;20.60;69.60
8002;DHT22;4046;48.774;8.732;2024-03-02T01:57:41;20.60;69.60
8002;DHT22;4046;48.774;8.732;2024-03-02T02:00:07;20.60;69.60
8002;DHT22;4046;48.774;8.732;2024-03-02T02:02:34;20.60;69.70
8002;DHT22;4046;48.774;8.732;2024-03-02T02:05:01;20.60;69.60
8002;DHT22;4046;48.774;8.732;2024-03-02T02:07:42;20.60;69.60
8002;DHT22;4046;48.774;8.732;2024-03-02T02:16:10;20.60;69.60
8002;DHT22;4046;48.774;8.732;2024-03-02T02:18:36;20.60;69.60
8002;DHT22;4046;48.774;8.732;2024-03-02T02:21:28;20.60;69.60
8002;DHT22;4046;48.774;8.732;2024-03-02T02:24:33;20.60;69.60
8002;DHT22;4046;48.774;8.732;2024-03-02T02:30:13;20.60;69.60
8002;DHT22;4046;48.774;8.732;2024-03-02T02:32:39;20.60;69.60
8002;DHT22;4046;48.774;8.732;2024-03-02T02:38:17;20.60;69.60
8002;DHT22;4046;48.774;8.732;2024-03-02T02:44:00;20.60;69.60
8002;DHT22;4046;48.774;8.732;2024-03-02T02:49:42;20.60;69.60
8002;DHT22;4046;48.774;8.732;2024-03-02T02:52:09;20.60;69.60
8002;DHT22;4046;48.774;8.732;2024-03-02T02:54:37;20.60;69.60
8002;DHT22;4046;48.774;8.732;2024-03-02T03:00:54;20.60;69.60
8002;DHT22;4046;48.774;8.732;2024-03-02T03:07:02;20.60;69.60
8002;DHT22;4046;48.774;8.732;2024-03-02T03:09:51;20.60;69.60
8002;DHT22;4046;48.774;8.732;2024-03-02T03:16:34;20.60;69.60
8002;DHT22;4046;48.774;8.732;2024-03-02T03:19:01;20.60;69.60
8002;DHT22;4046;48.774;8.732;2024-03-02T03:21:46;20.60;69.60
8002;DHT22;4046;48.774;8.732;2024-03-02T03:24:47;20.60;69.60
8002;DHT22;4046;48.774;8.732;2024-03-02T03:27:39;20.60;69.60
8002;DHT22;4046;48.774;8.732;2024-03-02T03:34:03;20.60;69.60
8002;DHT22;4046;48.774;8.732;2024-03-02T03:36:44;20.60;69.60
8002;DHT22;4046;48.774;8.732;2024-03-02T03:39:11;20.60;69.60
8002;DHT22;4046;48.774;8.732;2024-03-02T03:41:37;20.60;69.60
8002;DHT22;4046;48.774;8.732;2024-03-02T03:44:03;20.60;69.60
8002;DHT22;4046;48.774;8.732;2024-03-02T03:46:42;20.60;69.60
8002;DHT22;4046;48.774;8.732;2024-03-02T03:52:58;20.60;69.60
8002;DHT22;4046;48.774;8.732;2024-03-02T03:55:24;20.60;69.60
8002;DHT22;4046;48.774;8.732;2024-03-02T03:58:28;20.60;69.60
8002;DHT22;4046;48.774;8.732;2024-03-02T04:01:32;20.60;69.60
8002;DHT22;4046;48.774;8.732;2024-03-02T04:04:08;20.60;69.60
8002;DHT22;4046;48.774;8.732;2024-03-02T04:07:11;20.60;69.60
8002;DHT22;4046;48.774;8.732;2024-03-02T04:10:24;20.60;69.60
8002;DHT22;4046;48.774;8.732;2024-03-02T04:12:35;20.60;69.50
8002;DHT22;4046;48.774;8.732;2024-03-02T04:15:05;20.60;70.30
8002;DHT22;4046;48.774;8.732;2024-03-02T04:17:36;20.60;69.50
8002;DHT22;4046;48.774;8.732;2024-03-02T04:20:26;20.60;69.50
8002;DHT22;4046;48.774;8.732;2024-03-02T04:22:52;20.60;69.50
8002;DHT22;4046;48.774;8.732;2024-03-02T04:25:32;20.60;69.50
8002;DHT22;4046;48.774;8.732;2024-03-02T04:28:31;20.60;69.50
8002;DHT22;4046;48.774;8.732;2024-03-02T04:34:44;20.60;69.50
8002;DHT22;4046;48.774;8.732;2024-03-02T04:37:11;20.60;69.60
8002;DHT22;4046;48.774;8.732;2024-03-02T04:43:35;20.60;69.50
8002;DHT22;4046;48.774;8.732;2024-03-02T04:46:13;20.60;69.60
8002;DHT22;4046;48.774;8.732;2024-03-02T04:48:56;20.60;69.50
8002;DHT22;4046;48.774;8.732;2024-03-02T04:51:49;20.60;69.50
8002;DHT22;4046;48.774;8.732;2024-03-02T04:54:43;20.60;69.50
8002;DHT22;4046;48.774;8.732;2024-03-02T04:57:34;20.60;69.50
8002;DHT22;4046;48.774;8.732;2024-03-02T05:00:54;20.60;69.60
8002;DHT22;4046;48.774;8.732;2024-03-02T05:03:39;20.20;69.00
8002;DHT22;4046;48.774;8.732;2024-03-02T05:06:55;20.60;69.50
8002;DHT22;4046;48.774;8.732;2024-03-02T05:09:24;20.50;69.40
8002;DHT22;4046;48.774;8.732;2024-03-02T05:12:46;20.60;69.60
8002;DHT22;4046;48.774;8.732;2024-03-02T05:19:09;20.60;69.50
8002;DHT22;4046;48.774;8.732;2024-03-02T05:21:59;20.50;69.40
8002;DHT22;4046;48.774;8.732;2024-03-02T05:27:49;20.50;69.40
8002;DHT22;4046;48.774;8.732;2024-03-02T05:30:43;20.50;69.40
8002;DHT22;4046;48.774;8.732;2024-03-02T05:39:52;20.50;69.40
8002;DHT22;4046;48.774;8.732;2024-03-02T05:42:31;20.50;69.40
8002;DHT22;4046;48.774;8.732;2024-03-02T05:44:57;20.50;69.40
8002;DHT22;4046;48.774;8.732;2024-03-02T05:51:06;20.50;69.50
8002;DHT22;4046;48.774;8.732;2024-03-02T05:54:02;20.50;69.40
8002;DHT22;4046;48.774;8.732;2024-03-02T05:57:04;20.50;69.40
8002;DHT22;4046;48.774;8.732;2024-03-02T05:59:49;20.50;69.40
8002;DHT22;4046;48.774;8.732;2024-03-02T06:02:15;20.50;69.30
8002;DHT22;4046;48.774;8.732;2024-03-02T06:09:20;20.50;69.30
8002;DHT22;4046;48.774;8.732;2024-03-02T06:11:48;20.50;69.30
8002;DHT22;4046;48.774;8.732;2024-03-02T06:14:28;20.50;69.40
8002;DHT22;4046;48.774;8.732;2024-03-02T06:17:08;20.50;69.30
8002;DHT22;4046;48.774;8.732;2024-03-02T06:20:07;20.50;69.30
8002;DHT22;4046;48.774;8.732;2024-03-02T06:22:50;20.50;69.30
8002;DHT22;4046;48.774;8.732;2024-03-02T06:25:16;20.50;69.30
8002;DHT22;4046;48.774;8.732;2024-03-02T06:27:42;20.50;69.30
8002;DHT22;4046;48.774;8.732;2024-03-02T06:30:10;20.50;69.20
8002;DHT22;4046;48.774;8.732;2024-03-02T06:33:12;20.60;69.30
8002;DHT22;4046;48.774;8.732;2024-03-02T06:38:38;20.60;69.20
8002;DHT22;4046;48.774;8.732;2024-03-02T06:41:06;20.60;69.30
8002;DHT22;4046;48.774;8.732;2024-03-02T06:43:56;20.60;69.30
8002;DHT22;4046;48.774;8.732;2024-03-02T06:46:50;20.60;69.20
8002;DHT22;4046;48.774;8.732;2024-03-02T06:49:16;20.60;69.20
8002;DHT22;4046;48.774;8.732;2024-03-02T06:51:44;20.60;69.20
8002;DHT22;4046;48.774;8.732;2024-03-02T06:55:03;20.60;69.20
8002;DHT22;4046;48.774;8.732;2024-03-02T07:01:02;20.60;69.20
8002;DHT22;4046;48.774;8.732;2024-03-02T07:08:04;20.60;70.00
8002;DHT22;4046;48.774;8.732;2024-03-02T07:10:51;20.60;69.30
8002;DHT22;4046;48.774;8.732;2024-03-02T07:13:18;20.60;69.20
8002;DHT22;4046;48.774;8.732;2024-03-02T07:15:54;20.60;69.30
8002;DHT22;4046;48.774;8.732;2024-03-02T07:18:44;20.60;69.20
8002;DHT22;4046;48.774;8.732;2024-03-02T07:21:22;20.60;69.20
8002;DHT22;4046;48.774;8.732;2024-03-02T07:24:10;20.60;69.10
8002;DHT22;4046;48.774;8.732;2024-03-02T07:26:47;20.60;69.20
8002;DHT22;4046;48.774;8.732;2024-03-02T07:29:13;20.60;69.20
8002;DHT22;4046;48.774;8.732;2024-03-02T07:31:48;20.60;69.20
8002;DHT22;4046;48.774;8.732;2024-03-02T07:34:23;20.60;69.10
8002;DHT22;4046;48.774;8.732;2024-03-02T07:37:23;20.60;69.20
8002;DHT22;4046;48.774;8.732;2024-03-02T07:40:08;20.60;69.10
8002;DHT22;4046;48.774;8.732;2024-03-02T07:42:47;20.60;69.10
8002;DHT22;4046;48.774;8.732;2024-03-02T07:46:01;20.60;69.10
8002;DHT22;4046;48.774;8.732;2024-03-02T07:48:29;20.60;69.00
8002;DHT22;4046;48.774;8.732;2024-03-02T07:51:12;20.60;69.00
8002;DHT22;4046;48.774;8.732;2024-03-02T07:54:08;20.70;69.00
8002;DHT22;4046;48.774;8.732;2024-03-02T07:56:44;20.70;69.00
8002;DHT22;4046;48.774;8.732;2024-03-02T08:06:03;20.80;68.80
8002;DHT22;4046;48.774;8.732;2024-03-02T08:08:57;20.80;68.80
8002;DHT22;4046;48.774;8.732;2024-03-02T08:11:23;20.80;68.70
8002;DHT22;4046;48.774;8.732;2024-03-02T08:13:59;20.90;68.70
8002;DHT22;4046;48.774;8.732;2024-03-02T08:16:49;20.90;68.70
8002;DHT22;4046;48.774;8.732;2024-03-02T08:19:34;20.90;68.70
8002;DHT22;4046;48.774;8.732;2024-03-02T08:22:17;20.90;68.60
8002;DHT22;4046;48.774;8.732;2024-03-02T08:24:57;20.90;68.50
8002;DHT22;4046;48.774;8.732;2024-03-02T08:27:53;21.00;68.50
8002;DHT22;4046;48.774;8.732;2024-03-02T08:31:01;21.00;68.60
8002;DHT22;4046;48.774;8.732;2024-03-02T08:33:47;21.30;68.90
8002;DHT22;4046;48.774;8.732;2024-03-02T08:37:02;21.00;68.60
8002;DHT22;4046;48.774;8.732;2024-03-02T08:39:39;21.00;68.50
8002;DHT22;4046;48.774;8.732;2024-03-02T08:42:06;20.90;68.50
8002;DHT22;4046;48.774;8.732;2024-03-02T08:44:49;21.00;68.60
8002;DHT22;4046;48.774;8.732;2024-03-02T08:47:32;21.00;68.50
8002;DHT22;4046;48.774;8.732;2024-03-02T08:50:05;21.00;68.50
8002;DHT22;4046;48.774;8.732;2024-03-02T08:53:05;21.10;68.50
8002;DHT22;4046;48.774;8.732;2024-03-02T08:55:59;21.10;68.40
8002;DHT22;4046;48.774;8.732;2024-03-02T08:58:47;21.10;68.30
8002;DHT22;4046;48.774;8.732;2024-03-02T09:01:40;21.20;68.40
8002;DHT22;4046;48.774;8.732;2024-03-02T09:04:31;21.20;68.20
8002;DHT22;4046;48.774;8.732;2024-03-02T09:07:44;21.30;68.20
8002;DHT22;4046;48.774;8.732;2024-03-02T09:10:11;21.30;68.00
8002;DHT22;4046;48.774;8.732;2024-03-02T09:12:37;21.40;68.10
8002;DHT22;4046;48.774;8.732;2024-03-02T09:15:04;21.40;68.00
8002;DHT22;4046;48.774;8.732;2024-03-02T09:17:35;21.40;68.00
8002;DHT22;4046;48.774;8.732;2024-03-02T09:20:01;21.50;68.00
8002;DHT22;4046;48.774;8.732;2024-03-02T09:25:16;21.60;68.50
8002;DHT22;4046;48.774;8.732;2024-03-02T09:27:42;21.60;67.50
8002;DHT22;4046;48.774;8.732;2024-03-02T09:30:09;21.70;67.40
8002;DHT22;4046;48.774;8.732;2024-03-02T09:33:16;21.80;67.20
8002;DHT22;4046;48.774;8.732;2024-03-02T09:35:49;22.00;66.90
8002;DHT22;4046;48.774;8.732;2024-03-02T09:38:15;22.20;66.50
8002;DHT22;4046;48.774;8.732;2024-03-02T09:41:01;22.50;66.20
8002;DHT22;4046;48.774;8.732;2024-03-02T09:44:09;22.70;65.80
8002;DHT22;4046;48.774;8.732;2024-03-02T09:47:16;22.90;65.50
8002;DHT22;4046;48.774;8.732;2024-03-02T09:52:52;23.60;65.10
8002;DHT22;4046;48.774;8.732;2024-03-02T09:55:19;23.40;64.50
8002;DHT22;4046;48.774;8.732;2024-03-02T09:58:13;23.60;64.30
8002;DHT22;4046;48.774;8.732;2024-03-02T10:01:37;23.70;64.00
8002;DHT22;4046;48.774;8.732;2024-03-02T10:04:28;23.90;63.80
8002;DHT22;4046;48.774;8.732;2024-03-02T10:07:20;24.00;63.70
8002;DHT22;4046;48.774;8.732;2024-03-02T10:09:53;24.00;63.40
8002;DHT22;4046;48.774;8.732;2024-03-02T10:15:33;24.10;63.20
8002;DHT22;4046;48.774;8.732;2024-03-02T10:18:03;24.10;63.10
8002;DHT22;4046;48.774;8.732;2024-03-02T10:21:28;24.10;63.20
8002;DHT22;4046;48.774;8.732;2024-03-02T10:28:04;23.70;63.80
8002;DHT22;4046;48.774;8.732;2024-03-02T10:31:16;23.50;64.10
8002;DHT22;4046;48.774;8.732;2024-03-02T10:37:49;23.30;64.50
8002;DHT22;4046;48.774;8.732;2024-03-02T10:41:01;23.10;64.50
8002;DHT22;4046;48.774;8.732;2024-03-02T10:43:56;23.00;64.60
8002;DHT22;4046;48.774;8.732;2024-03-02T10:46:28;23.00;64.90
8002;DHT22;4046;48.774;8.732;2024-03-02T10:49:27;22.90;65.00
8002;DHT22;4046;48.774;8.732;2024-03-02T10:51:55;22.70;65.20
8002;DHT22;4046;48.774;8.732;2024-03-02T10:54:21;22.60;65.40
8002;DHT22;4046;48.774;8.732;2024-03-02T10:57:04;22.50;65.60
8002;DHT22;4046;48.774;8.732;2024-03-02T10:59:35;22.30;65.70
8002;DHT22;4046;48.774;8.732;2024-03-02T11:02:03;22.30;65.90
8002;DHT22;4046;48.774;8.732;2024-03-02T11:04:40;22.20;66.00
8002;DHT22;4046;48.774;8.732;2024-03-02T11:07:20;22.10;66.10
8002;DHT22;4046;48.774;8.732;2024-03-02T11:09:59;22.10;66.20
8002;DHT22;4046;48.774;8.732;2024-03-02T11:16:54;22.00;66.40
8002;DHT22;4046;48.774;8.732;2024-03-02T11:20:10;21.90;66.50
8002;DHT22;4046;48.774;8.732;2024-03-02T11:22:52;21.80;66.60
8002;DHT22;4046;48.774;8.732;2024-03-02T11:25:42;21.80;66.70
8002;DHT22;4046;48.774;8.732;2024-03-02T11:31:18;21.80;66.90
8002;DHT22;4046;48.774;8.732;2024-03-02T11:46:53;21.60;67.20
8002;DHT22;4046;48.774;8.732;2024-03-02T11:52:41;21.60;67.30
8002;DHT22;4046;48.774;8.732;2024-03-02T11:55:18;21.60;67.40
8002;DHT22;4046;48.774;8.732;2024-03-02T12:01:49;21.50;67.60
8002;DHT22;4046;48.774;8.732;2024-03-02T12:04:18;21.50;67.60
8002;DHT22;4046;48.774;8.732;2024-03-02T12:06:46;21.50;67.50
8002;DHT22;4046;48.774;8.732;2024-03-02T12:09:12;21.50;67.60
8002;DHT22;4046;48.774;8.732;2024-03-02T12:11:40;21.50;67.50
8002;DHT22;4046;48.774;8.732;2024-03-02T12:14:20;21.60;67.60
8002;DHT22;4046;48.774;8.732;2024-03-02T12:16:52;21.50;67.70
8002;DHT22;4046;48.774;8.732;2024-03-02T12:20:22;21.40;67.60
8002;DHT22;4046;48.774;8.732;2024-03-02T12:26:07;21.30;67.70
8002;DHT22;4046;48.774;8.732;2024-03-02T12:28:34;21.30;67.80
8002;DHT22;4046;48.774;8.732;2024-03-02T12:31:20;21.30;67.90
8002;DHT22;4046;48.774;8.732;2024-03-02T12:34:17;21.30;67.80
8002;DHT22;4046;48.774;8.732;2024-03-02T12:36:47;21.30;67.90
8002;DHT22;4046;48.774;8.732;2024-03-02T12:39:54;21.20;67.80
8002;DHT22;4046;48.774;8.732;2024-03-02T12:42:50;21.20;67.90
8002;DHT22;4046;48.774;8.732;2024-03-02T12:45:23;21.20;67.90
8002;DHT22;4046;48.774;8.732;2024-03-02T12:48:24;21.20;67.90
8002;DHT22;4046;48.774;8.732;2024-03-02T12:51:06;21.20;68.00
8002;DHT22;4046;48.774;8.732;2024-03-02T12:54:25;21.20;68.00
8002;DHT22;4046;48.774;8.732;2024-03-02T12:56:59;21.20;68.10
8002;DHT22;4046;48.774;8.732;2024-03-02T13:00:18;21.10;68.00
8002;DHT22;4046;48.774;8.732;2024-03-02T13:03:09;21.10;68.00
8002;DHT22;4046;48.774;8.732;2024-03-02T13:06:06;21.10;68.10
8002;DHT22;4046;48.774;8.732;2024-03-02T13:08:33;21.10;68.10
8002;DHT22;4046;48.774;8.732;2024-03-02T13:11:00;21.10;68.20
8002;DHT22;4046;48.774;8.732;2024-03-02T13:13:30;21.10;68.30
8002;DHT22;4046;48.774;8.732;2024-03-02T13:15:56;21.00;68.20
8002;DHT22;4046;48.774;8.732;2024-03-02T13:18:34;21.10;68.30
8002;DHT22;4046;48.774;8.732;2024-03-02T13:22:03;21.10;68.30
8002;DHT22;4046;48.774;8.732;2024-03-02T13:27:25;21.00;68.30
8002;DHT22;4046;48.774;8.732;2024-03-02T13:30:16;21.00;68.40
8002;DHT22;4046;48.774;8.732;2024-03-02T13:33:12;21.00;68.40
8002;DHT22;4046;48.774;8.732;2024-03-02T13:35:38;21.00;68.30
8002;DHT22;4046;48.774;8.732;2024-03-02T13:42:03;21.10;68.40
8002;DHT22;4046;48.774;8.732;2024-03-02T13:48:00;21.00;68.50
8002;DHT22;4046;48.774;8.732;2024-03-02T13:50:29;21.00;68.50
8002;DHT22;4046;48.774;8.732;2024-03-02T13:53:18;21.10;68.50
8002;DHT22;4046;48.774;8.732;2024-03-02T13:56:48;21.10;69.30
8002;DHT22;4046;48.774;8.732;2024-03-02T13:59:41;21.10;68.50
8002;DHT22;4046;48.774;8.732;2024-03-02T14:02:08;21.10;68.50
8002;DHT22;4046;48.774;8.732;2024-03-02T14:04:53;21.10;68.60
8002;DHT22;4046;48.774;8.732;2024-03-02T14:11:05;21.00;68.50
8002;DHT22;4046;48.774;8.732;2024-03-02T14:14:00;21.00;68.50
8002;DHT22;4046;48.774;8.732;2024-03-02T14:17:18;21.00;68.60
8002;DHT22;4046;48.774;8.732;2024-03-02T14:20:17;21.00;68.70
8002;DHT22;4046;48.774;8.732;2024-03-02T14:22:48;21.00;68.70
8002;DHT22;4046;48.774;8.732;2024-03-02T14:25:37;21.10;68.70
8002;DHT22;4046;48.774;8.732;2024-03-02T14:28:14;21.00;68.80
8002;DHT22;4046;48.774;8.732;2024-03-02T14:30:42;21.00;68.80
8002;DHT22;4046;48.774;8.732;2024-03-02T14:33:40;21.00;68.90
8002;DHT22;4046;48.774;8.732;2024-03-02T14:36:16;21.00;68.80
8002;DHT22;4046;48.774;8.732;2024-03-02T14:38:42;21.00;68.80
8002;DHT22;4046;48.774;8.732;2024-03-02T14:44:51;21.00;68.90
8002;DHT22;4046;48.774;8.732;2024-03-02T14:47:23;21.00;69.00
8002;DHT22;4046;48.774;8.732;2024-03-02T14:50:20;21.00;69.00
8002;DHT22;4046;48.774;8.732;2024-03-02T14:52:46;21.00;69.00
8002;DHT22;4046;48.774;8.732;2024-03-02T14:55:25;20.90;69.00
8002;DHT22;4046;48.774;8.732;2024-03-02T14:58:22;21.00;69.10
8002;DHT22;4046;48.774;8.732;2024-03-02T15:00:48;21.00;69.10
8002;DHT22;4046;48.774;8.732;2024-03-02T15:03:41;21.00;69.10
8002;DHT22;4046;48.774;8.732;2024-03-02T15:06:37;21.00;69.10
8002;DHT22;4046;48.774;8.732;2024-03-02T15:09:23;20.90;69.80
8002;DHT22;4046;48.774;8.732;2024-03-02T15:12:22;20.90;69.10
8002;DHT22;4046;48.774;8.732;2024-03-02T15:14:58;20.90;69.10
8002;DHT22;4046;48.774;8.732;2024-03-02T15:17:24;20.90;69.20
8002;DHT22;4046;48.774;8.732;2024-03-02T15:19:52;20.90;69.30
8002;DHT22;4046;48.774;8.732;2024-03-02T15:22:21;20.90;69.30
8002;DHT22;4046;48.774;8.732;2024-03-02T15:24:57;20.90;69.30
8002;DHT22;4046;48.774;8.732;2024-03-02T15:27:26;20.90;69.30
8002;DHT22;4046;48.774;8.732;2024-03-02T15:30:21;20.90;69.30
8002;DHT22;4046;48.774;8.732;2024-03-02T15:36:59;20.90;69.70
8002;DHT22;4046;48.774;8.732;2024-03-02T15:40:00;20.90;69.40
8002;DHT22;4046;48.774;8.732;2024-03-02T15:42:38;20.90;70.20
8002;DHT22;4046;48.774;8.732;2024-03-02T15:45:13;20.90;69.40
8002;DHT22;4046;48.774;8.732;2024-03-02T15:48:56;20.90;69.40
8002;DHT22;4046;48.774;8.732;2024-03-02T15:51:28;20.90;69.40
8002;DHT22;4046;48.774;8.732;2024-03-02T16:01:12;20.90;69.60
8002;DHT22;4046;48.774;8.732;2024-03-02T16:04:39;20.90;69.60
8002;DHT22;4046;48.774;8.732;2024-03-02T16:07:04;20.90;69.60
8002;DHT22;4046;48.774;8.732;2024-03-02T16:09:43;20.90;69.60
8002;DHT22;4046;48.774;8.732;2024-03-02T16:12:36;20.80;69.50
8002;DHT22;4046;48.774;8.732;2024-03-02T16:18:49;20.80;69.60
8002;DHT22;4046;48.774;8.732;2024-03-02T16:21:15;20.80;69.60
8002;DHT22;4046;48.774;8.732;2024-03-02T16:23:45;20.90;69.60
8002;DHT22;4046;48.774;8.732;2024-03-02T16:28:58;20.90;69.60
8002;DHT22;4046;48.774;8.732;2024-03-02T16:31:30;21.10;69.90
8002;DHT22;4046;48.774;8.732;2024-03-02T16:33:56;20.90;69.60
8002;DHT22;4046;48.774;8.732;2024-03-02T16:36:22;21.00;69.70
8002;DHT22;4046;48.774;8.732;2024-03-02T16:38:55;21.00;69.70
8002;DHT22;4046;48.774;8.732;2024-03-02T16:41:52;20.90;69.60
8002;DHT22;4046;48.774;8.732;2024-03-02T16:45:04;20.90;69.60
8002;DHT22;4046;48.774;8.732;2024-03-02T16:47:36;21.00;69.80
8002;DHT22;4046;48.774;8.732;2024-03-02T16:50:42;21.00;69.70
8002;DHT22;4046;48.774;8.732;2024-03-02T16:53:13;21.00;69.80
8002;DHT22;4046;48.774;8.732;2024-03-02T16:56:08;20.90;69.70
8002;DHT22;4046;48.774;8.732;2024-03-02T17:01:41;21.00;69.80
8002;DHT22;4046;48.774;8.732;2024-03-02T17:04:34;21.00;69.80
8002;DHT22;4046;48.774;8.732;2024-03-02T17:07:06;21.00;69.80
8002;DHT22;4046;48.774;8.732;2024-03-02T17:09:36;21.00;69.80
8002;DHT22;4046;48.774;8.732;2024-03-02T17:13:17;21.00;69.90
8002;DHT22;4046;48.774;8.732;2024-03-02T17:15:46;20.90;69.80
8002;DHT22;4046;48.774;8.732;2024-03-02T17:18:52;20.90;69.90
8002;DHT22;4046;48.774;8.732;2024-03-02T17:22:30;20.90;69.90
8002;DHT22;4046;48.774;8.732;2024-03-02T17:25:16;20.90;70.00
8002;DHT22;4046;48.774;8.732;2024-03-02T17:31:15;20.40;69.50
8002;DHT22;4046;48.774;8.732;2024-03-02T17:33:50;20.90;70.00
8002;DHT22;4046;48.774;8.732;2024-03-02T17:36:36;20.90;70.00
8002;DHT22;4046;48.774;8.732;2024-03-02T17:39:22;20.90;70.00
8002;DHT22;4046;48.774;8.732;2024-03-02T17:41:48;20.90;70.00
8002;DHT22;4046;48.774;8.732;2024-03-02T17:44:38;20.90;70.10
8002;DHT22;4046;48.774;8.732;2024-03-02T17:47:35;20.90;70.00
8002;DHT22;4046;48.774;8.732;2024-03-02T17:50:40;20.90;70.10
8002;DHT22;4046;48.774;8.732;2024-03-02T17:53:40;20.90;70.10
8002;DHT22;4046;48.774;8.732;2024-03-02T17:57:11;20.90;70.20
8002;DHT22;4046;48.774;8.732;2024-03-02T18:03:32;20.90;70.20
8002;DHT22;4046;48.774;8.732;2024-03-02T18:05:58;20.90;70.30
8002;DHT22;4046;48.774;8.732;2024-03-02T18:08:39;20.80;70.10
8002;DHT22;4046;48.774;8.732;2024-03-02T18:11:20;20.90;70.30
8002;DHT22;4046;48.774;8.732;2024-03-02T18:14:02;20.80;70.20
8002;DHT22;4046;48.774;8.732;2024-03-02T18:16:55;20.80;70.30
8002;DHT22;4046;48.774;8.732;2024-03-02T18:22:22;20.90;70.30
8002;DHT22;4046;48.774;8.732;2024-03-02T18:25:20;20.90;70.30
8002;DHT22;4046;48.774;8.732;2024-03-02T18:28:30;20.80;70.20
8002;DHT22;4046;48.774;8.732;2024-03-02T18:31:25;20.80;70.30
8002;DHT22;4046;48.774;8.732;2024-03-02T18:33:52;20.80;70.30
8002;DHT22;4046;48.774;8.732;2024-03-02T18:39:36;20.80;70.40
8002;DHT22;4046;48.774;8.732;2024-03-02T18:43:04;20.80;70.40
8002;DHT22;4046;48.774;8.732;2024-03-02T18:46:01;20.80;70.40
8002;DHT22;4046;48.774;8.732;2024-03-02T18:52:32;20.80;70.40
8002;DHT22;4046;48.774;8.732;2024-03-02T18:55:40;20.80;70.40
8002;DHT22;4046;48.774;8.732;2024-03-02T18:59:17;20.90;70.50
8002;DHT22;4046;48.774;8.732;2024-03-02T19:01:52;20.80;70.40
8002;DHT22;4046;48.774;8.732;2024-03-02T19:04:29;20.80;70.40
8002;DHT22;4046;48.774;8.732;2024-03-02T19:07:41;20.80;70.50
8002;DHT22;4046;48.774;8.732;2024-03-02T19:10:27;20.80;70.50
8002;DHT22;4046;48.774;8.732;2024-03-02T19:13:23;20.80;70.50
8002;DHT22;4046;48.774;8.732;2024-03-02T19:16:46;20.80;70.50
8002;DHT22;4046;48.774;8.732;2024-03-02T19:19:43;20.80;70.40
8002;DHT22;4046;48.774;8.732;2024-03-02T19:22:09;20.80;70.50
8002;DHT22;4046;48.774;8.732;2024-03-02T19:24:57;20.80;70.40
8002;DHT22;4046;48.774;8.732;2024-03-02T19:27:48;20.80;70.40
8002;DHT22;4046;48.774;8.732;2024-03-02T19:31:10;20.90;70.50
8002;DHT22;4046;48.774;8.732;2024-03-02T19:33:46;20.90;70.50
8002;DHT22;4046;48.774;8.732;2024-03-02T19:36:13;20.80;70.50
8002;DHT22;4046;48.774;8.732;2024-03-02T19:38:42;20.80;70.50
8002;DHT22;4046;48.774;8.732;2024-03-02T19:41:42;20.80;70.50
8002;DHT22;4046;48.774;8.732;2024-03-02T19:44:20;21.20;70.90
8002;DHT22;4046;48.774;8.732;2024-03-02T19:46:49;20.90;70.60
8002;DHT22;4046;48.774;8.732;2024-03-02T19:49:16;20.80;70.50
8002;DHT22;4046;48.774;8.732;2024-03-02T19:51:53;20.90;70.60
8002;DHT22;4046;48.774;8.732;2024-03-02T19:54:22;21.10;70.80
8002;DHT22;4046;48.774;8.732;2024-03-02T19:57:17;20.90;70.60
8002;DHT22;4046;48.774;8.732;2024-03-02T20:00:12;20.90;70.60
8002;DHT22;4046;48.774;8.732;2024-03-02T20:03:14;20.90;70.60
8002;DHT22;4046;48.774;8.732;2024-03-02T20:05:47;20.90;70.60
8002;DHT22;4046;48.774;8.732;2024-03-02T20:08:25;20.80;70.50
8002;DHT22;4046;48.774;8.732;2024-03-02T20:11:50;20.80;70.60
8002;DHT22;4046;48.774;8.732;2024-03-02T20:14:45;20.80;70.60
8002;DHT22;4046;48.774;8.732;2024-03-02T20:17:23;20.80;70.60
8002;DHT22;4046;48.774;8.732;2024-03-02T20:20:47;20.80;70.60
8002;DHT22;4046;48.774;8.732;2024-03-02T20:23:33;20.80;70.70
8002;DHT22;4046;48.774;8.732;2024-03-02T20:25:59;20.80;70.50
8002;DHT22;4046;48.774;8.732;2024-03-02T20:28:49;20.80;70.60
8002;DHT22;4046;48.774;8.732;2024-03-02T20:35:29;20.80;70.60
8002;DHT22;4046;48.774;8.732;2024-03-02T20:38:01;20.80;70.70
8002;DHT22;4046;48.774;8.732;2024-03-02T20:40:34;20.80;70.70
8002;DHT22;4046;48.774;8.732;2024-03-02T20:44:12;20.80;70.70
8002;DHT22;4046;48.774;8.732;2024-03-02T20:46:48;20.80;70.70
8002;DHT22;4046;48.774;8.732;2024-03-02T20:49:25;20.80;70.80
8002;DHT22;4046;48.774;8.732;2024-03-02T20:52:23;21.10;71.00
8002;DHT22;4046;48.774;8.732;2024-03-02T20:58:09;20.80;70.70
8002;DHT22;4046;48.774;8.732;2024-03-02T21:04:04;20.90;70.70
8002;DHT22;4046;48.774;8.732;2024-03-02T21:06:43;20.90;70.70
8002;DHT22;4046;48.774;8.732;2024-03-02T21:09:28;20.90;70.80
8002;DHT22;4046;48.774;8.732;2024-03-02T21:12:07;20.90;70.80
8002;DHT22;4046;48.774;8.732;2024-03-02T21:15:01;20.90;70.80
8002;DHT22;4046;48.774;8.732;2024-03-02T21:18:11;20.90;70.90
8002;DHT22;4046;48.774;8.732;2024-03-02T21:20:41;20.90;70.80
8002;DHT22;4046;48.774;8.732;2024-03-02T21:23:34;20.80;70.70
8002;DHT22;4046;48.774;8.732;2024-03-02T21:26:30;20.80;70.70
8002;DHT22;4046;48.774;8.732;2024-03-02T21:29:24;20.80;70.80
8002;DHT22;4046;48.774;8.732;2024-03-02T21:32:07;20.80;70.80
8002;DHT22;4046;48.774;8.732;2024-03-02T21:35:00;20.80;70.80
8002;DHT22;4046;48.774;8.732;2024-03-02T21:37:30;20.80;70.80
8002;DHT22;4046;48.774;8.732;2024-03-02T21:40:08;20.80;70.80
8002;DHT22;4046;48.774;8.732;2024-03-02T21:43:02;20.80;70.80
8002;DHT22;4046;48.774;8.732;2024-03-02T21:45:41;20.80;70.80
8002;DHT22;4046;48.774;8.732;2024-03-02T21:48:14;20.90;70.90